createdAt,value
2022-09-14T00:01:25.421Z,1.15
2022-09-14T00:03:58.359Z,0.63
2022-09-14T00:06:25.901Z,0.50
2022-09-14T00:08:54.515Z,0.60
2022-09-14T00:11:23.348Z,0.75
2022-09-14T00:13:52.068Z,0.98
2022-09-14T00:16:45.058Z,0.50
2022-09-14T00:19:24.900Z,0.40
2022-09-14T00:21:59.516Z,0.82
2022-09-14T00:24:30.018Z,0.50
2022-09-14T00:26:56.623Z,0.57
2022-09-14T00:29:24.039Z,0.60
2022-09-14T00:31:51.156Z,0.50
2022-09-14T00:34:17.991Z,0.43
2022-09-14T00:36:47.286Z,0.73
2022-09-14T00:39:14.638Z,0.38
2022-09-14T00:41:43.478Z,1.10
2022-09-14T00:44:09.948Z,0.80
2022-09-14T00:46:42.421Z,0.70
2022-09-14T00:49:16.604Z,0.60
2022-09-14T00:51:57.114Z,0.60
2022-09-14T00:54:23.985Z,0.77
2022-09-14T00:56:51.541Z,0.60
2022-09-14T00:59:23.955Z,0.73
2022-09-14T01:01:50.875Z,0.73
2022-09-14T01:04:17.687Z,0.50
2022-09-14T01:06:53.434Z,0.65
2022-09-14T01:09:40.755Z,0.47
2022-09-14T01:12:13.643Z,0.60
2022-09-14T01:14:56.019Z,0.70
2022-09-14T01:17:22.647Z,0.50
2022-09-14T01:20:07.788Z,0.45
2022-09-14T01:22:44.314Z,0.52
2022-09-14T01:25:33.531Z,0.75
2022-09-14T01:28:05.256Z,0.52
2022-09-14T01:30:34.645Z,0.40
2022-09-14T01:33:16.689Z,0.85
2022-09-14T01:36:12.744Z,0.60
2022-09-14T01:38:47.156Z,0.50
2022-09-14T01:41:20.342Z,0.40
2022-09-14T01:43:54.130Z,0.30
2022-09-14T01:46:29.711Z,0.35
2022-09-14T01:49:25.761Z,0.50
2022-09-14T01:51:58.842Z,0.55
2022-09-14T01:54:39.186Z,0.60
2022-09-14T01:57:20.695Z,0.60
2022-09-14T01:59:50.779Z,0.75
2022-09-14T02:02:28.437Z,0.68
2022-09-14T02:05:07.503Z,0.65
2022-09-14T02:07:35.848Z,0.77
2022-09-14T02:10:04.794Z,0.85
2022-09-14T02:12:31.698Z,0.47
2022-09-14T02:14:58.261Z,0.50
2022-09-14T02:17:24.959Z,0.50
2022-09-14T02:20:01.556Z,0.57
2022-09-14T02:22:30.154Z,0.50
2022-09-14T02:24:57.745Z,0.32
2022-09-14T02:27:25.349Z,0.80
2022-09-14T02:29:52.535Z,0.70
2022-09-14T02:32:47.783Z,0.47
2022-09-14T02:35:20.614Z,0.55
2022-09-14T02:38:01.219Z,0.65
2022-09-14T02:40:49.700Z,0.40
2022-09-14T02:43:31.364Z,0.80
2022-09-14T02:46:16.388Z,0.40
2022-09-14T02:48:58.554Z,0.83
2022-09-14T02:51:29.989Z,0.77
2022-09-14T02:54:05.491Z,0.50
2022-09-14T02:58:59.369Z,0.45
2022-09-14T03:01:26.365Z,0.65
2022-09-14T03:03:53.013Z,0.47
2022-09-14T03:06:19.779Z,0.47
2022-09-14T03:08:46.349Z,0.85
2022-09-14T03:11:13.037Z,0.40
2022-09-14T03:13:39.601Z,0.50
2022-09-14T03:16:08.593Z,0.38
2022-09-14T03:18:36.494Z,0.95
2022-09-14T03:21:11.902Z,0.52
2022-09-14T03:26:11.311Z,0.30
2022-09-14T03:28:38.311Z,0.70
2022-09-14T03:31:07.090Z,0.68
2022-09-14T03:33:34.037Z,0.60
2022-09-14T03:36:01.340Z,0.40
2022-09-14T03:38:29.992Z,0.43
2022-09-14T03:40:58.022Z,0.95
2022-09-14T03:43:24.693Z,0.50
2022-09-14T03:45:51.191Z,0.60
2022-09-14T03:48:17.808Z,0.32
2022-09-14T03:50:44.901Z,0.60
2022-09-14T03:53:11.644Z,0.90
2022-09-14T03:55:40.566Z,0.60
2022-09-14T03:58:07.156Z,0.80
2022-09-14T04:00:33.689Z,0.77
2022-09-14T04:03:00.535Z,0.90
2022-09-14T04:05:27.105Z,0.70
2022-09-14T04:07:53.677Z,0.45
2022-09-14T04:10:20.352Z,0.50
2022-09-14T04:12:47.126Z,0.60
2022-09-14T04:15:13.671Z,0.70
2022-09-14T04:17:40.593Z,0.70
2022-09-14T04:20:08.050Z,0.63
2022-09-14T04:22:34.633Z,0.45
2022-09-14T04:25:01.360Z,0.68
2022-09-14T04:27:28.059Z,0.60
2022-09-14T04:29:54.584Z,0.57
2022-09-14T04:32:21.281Z,0.38
2022-09-14T04:34:49.055Z,0.55
2022-09-14T04:37:15.620Z,1.00
2022-09-14T04:39:42.393Z,1.02
2022-09-14T04:42:09.025Z,0.60
2022-09-14T04:44:35.626Z,0.77
2022-09-14T04:47:02.187Z,0.50
2022-09-14T04:49:28.700Z,0.98
2022-09-14T04:51:55.239Z,0.52
2022-09-14T04:54:22.057Z,0.80
2022-09-14T04:56:48.840Z,0.95
2022-09-14T04:59:15.909Z,0.60
2022-09-14T05:01:44.638Z,0.77
2022-09-14T05:04:12.015Z,0.55
2022-09-14T05:06:40.559Z,0.90
2022-09-14T05:09:13.024Z,0.57
2022-09-14T05:11:40.171Z,0.75
2022-09-14T05:14:06.923Z,0.80
2022-09-14T05:16:37.913Z,0.60
2022-09-14T05:19:07.239Z,0.35
2022-09-14T05:21:35.919Z,0.55
2022-09-14T05:24:05.751Z,0.68
2022-09-14T05:26:33.118Z,1.15
2022-09-14T05:29:01.555Z,1.10
2022-09-14T05:31:29.160Z,0.75
2022-09-14T05:33:55.979Z,1.20
2022-09-14T05:36:23.222Z,0.70
2022-09-14T05:38:50.218Z,1.10
2022-09-14T05:41:17.084Z,1.05
2022-09-14T05:43:44.098Z,1.05
2022-09-14T05:46:12.993Z,0.73
2022-09-14T05:48:40.403Z,0.70
2022-09-14T05:51:11.737Z,0.75
2022-09-14T05:53:38.381Z,0.95
2022-09-14T05:56:07.616Z,1.58
2022-09-14T05:58:35.529Z,0.70
2022-09-14T06:01:09.945Z,0.68
2022-09-14T06:03:37.046Z,0.75
2022-09-14T06:06:05.483Z,0.80
2022-09-14T06:08:32.225Z,1.05
2022-09-14T06:11:11.103Z,0.88
2022-09-14T06:13:38.118Z,0.68
2022-09-14T06:16:14.237Z,1.98
2022-09-14T06:18:42.086Z,0.90
2022-09-14T06:21:10.348Z,1.23
2022-09-14T06:23:37.335Z,0.77
2022-09-14T06:26:05.116Z,0.82
2022-09-14T06:28:32.877Z,0.80
2022-09-14T06:31:00.230Z,0.80
2022-09-14T06:33:26.960Z,0.68
2022-09-14T06:35:57.546Z,0.60
2022-09-14T06:38:25.049Z,0.70
2022-09-14T06:40:56.962Z,0.60
2022-09-14T06:43:24.890Z,0.82
2022-09-14T06:46:04.523Z,0.60
2022-09-14T06:48:34.569Z,0.80
2022-09-14T06:51:14.660Z,0.60
2022-09-14T06:53:41.588Z,0.80
2022-09-14T06:56:08.137Z,0.70
2022-09-14T06:58:34.772Z,0.60
2022-09-14T07:01:05.988Z,0.68
2022-09-14T07:03:35.413Z,1.00
2022-09-14T07:06:10.386Z,0.70
2022-09-14T07:08:38.628Z,0.73
2022-09-14T07:11:07.376Z,0.95
2022-09-14T07:13:34.500Z,1.42
2022-09-14T07:16:03.254Z,1.10
2022-09-14T07:18:34.047Z,0.60
2022-09-14T07:21:05.751Z,0.73
2022-09-14T07:23:33.787Z,1.27
2022-09-14T07:26:09.338Z,0.93
2022-09-14T07:28:37.290Z,0.55
2022-09-14T07:31:05.634Z,1.55
2022-09-14T07:33:32.695Z,1.65
2022-09-14T07:36:10.296Z,0.80
2022-09-14T07:38:51.706Z,0.73
2022-09-14T07:41:26.930Z,1.00
2022-09-14T07:43:56.679Z,0.57
2022-09-14T07:46:23.941Z,0.65
2022-09-14T07:48:58.693Z,0.60
2022-09-14T07:51:26.406Z,0.80
2022-09-14T07:53:53.509Z,0.70
2022-09-14T07:56:21.707Z,0.50
2022-09-14T07:58:53.967Z,0.88
2022-09-14T08:01:22.410Z,0.80
2022-09-14T08:03:49.562Z,0.50
2022-09-14T08:06:22.623Z,0.50
2022-09-14T08:08:51.700Z,0.80
2022-09-14T08:11:22.384Z,0.70
2022-09-14T08:13:57.515Z,0.88
2022-09-14T08:16:25.821Z,0.70
2022-09-14T08:19:00.168Z,0.60
2022-09-14T08:21:28.212Z,0.75
2022-09-14T08:23:55.603Z,0.63
2022-09-14T08:26:24.250Z,0.60
2022-09-14T08:28:52.193Z,0.55
2022-09-14T08:31:21.148Z,0.95
2022-09-14T08:33:50.848Z,1.00
2022-09-14T08:36:20.253Z,1.42
2022-09-14T08:38:47.262Z,0.80
2022-09-14T08:41:44.888Z,1.13
2022-09-14T08:44:11.406Z,0.90
2022-09-14T08:46:59.684Z,0.98
2022-09-14T08:50:00.358Z,1.20
2022-09-14T08:52:29.985Z,1.10
2022-09-14T08:55:00.145Z,1.02
2022-09-14T08:57:49.914Z,0.93
2022-09-14T09:00:21.493Z,0.75
2022-09-14T09:03:05.740Z,1.55
2022-09-14T09:05:49.030Z,1.00
2022-09-14T09:08:43.747Z,0.80
2022-09-14T09:11:18.603Z,1.20
2022-09-14T09:13:46.784Z,0.80
2022-09-14T09:16:19.115Z,0.77
2022-09-14T09:18:50.061Z,1.00
2022-09-14T09:21:23.799Z,0.73
2022-09-14T09:23:50.738Z,0.73
2022-09-14T09:26:32.212Z,0.90
2022-09-14T09:29:01.517Z,1.10
2022-09-14T09:31:44.302Z,1.00
2022-09-14T09:34:30.070Z,1.00
2022-09-14T09:37:23.033Z,0.60
2022-09-14T09:39:51.117Z,0.90
2022-09-14T09:42:24.358Z,1.10
2022-09-14T09:45:04.033Z,1.10
2022-09-14T09:47:51.226Z,0.82
2022-09-14T09:50:21.645Z,0.80
2022-09-14T09:52:51.066Z,0.65
2022-09-14T09:55:22.643Z,1.45
2022-09-14T09:57:49.395Z,0.70
2022-09-14T10:00:24.738Z,0.77
2022-09-14T10:02:52.072Z,0.90
2022-09-14T10:05:23.723Z,0.90
2022-09-14T10:07:55.305Z,1.00
2022-09-14T10:10:34.103Z,1.08
2022-09-14T10:13:01.886Z,1.35
2022-09-14T10:15:31.711Z,1.23
2022-09-14T10:18:14.074Z,1.60
2022-09-14T10:20:45.344Z,1.75
2022-09-14T10:23:17.725Z,1.63
2022-09-14T10:26:11.362Z,1.80
2022-09-14T10:28:43.512Z,2.00
2022-09-14T10:31:20.974Z,2.45
2022-09-14T10:33:51.913Z,2.63
2022-09-14T10:36:21.157Z,2.47
2022-09-14T10:38:55.047Z,2.67
2022-09-14T10:41:27.053Z,1.85
2022-09-14T10:44:09.068Z,2.42
2022-09-14T10:47:12.245Z,2.00
2022-09-14T10:49:57.323Z,1.90
2022-09-14T10:52:30.034Z,2.40
2022-09-14T10:55:19.751Z,2.35
2022-09-14T10:58:04.179Z,2.40
2022-09-14T11:00:36.788Z,2.35
2022-09-14T11:03:19.802Z,2.85
2022-09-14T11:05:52.187Z,2.60
2022-09-14T11:08:32.885Z,2.80
2022-09-14T11:11:37.810Z,1.83
2022-09-14T11:14:29.380Z,2.53
2022-09-14T11:17:37.698Z,2.30
2022-09-14T11:20:10.471Z,2.65
2022-09-14T11:23:03.306Z,2.28
2022-09-14T11:25:42.124Z,1.88
2022-09-14T11:28:27.678Z,1.77
2022-09-14T11:31:30.214Z,1.52
2022-09-14T11:34:11.074Z,2.17
2022-09-14T11:36:44.478Z,1.65
2022-09-14T11:39:17.018Z,1.35
2022-09-14T11:41:59.630Z,1.40
2022-09-14T11:44:39.637Z,1.42
2022-09-14T11:47:20.735Z,0.95
2022-09-14T11:50:14.057Z,1.05
2022-09-14T11:52:40.841Z,1.30
2022-09-14T11:55:15.972Z,1.10
2022-09-14T11:57:45.831Z,1.08
2022-09-14T12:00:24.554Z,0.98
2022-09-14T12:03:33.291Z,0.82
2022-09-14T12:06:28.573Z,0.90
2022-09-14T12:08:55.227Z,1.02
2022-09-14T12:11:31.213Z,1.02
2022-09-14T12:14:29.635Z,1.00
2022-09-14T12:17:37.834Z,1.33
2022-09-14T12:20:29.370Z,1.33
2022-09-14T12:23:26.431Z,1.33
2022-09-14T12:26:13.324Z,1.30
2022-09-14T12:28:52.536Z,1.20
2022-09-14T12:31:35.011Z,0.95
2022-09-14T12:34:20.259Z,1.40
2022-09-14T12:36:46.890Z,1.70
2022-09-14T12:39:23.674Z,1.20
2022-09-14T12:41:50.214Z,1.77
2022-09-14T12:44:56.011Z,1.77
2022-09-14T12:47:25.659Z,1.67
2022-09-14T12:49:54.153Z,1.60
2022-09-14T12:52:36.248Z,1.42
2022-09-14T12:55:26.131Z,1.67
2022-09-14T12:58:12.198Z,1.20
2022-09-14T13:00:58.395Z,1.85
2022-09-14T13:04:00.793Z,1.45
2022-09-14T13:06:35.400Z,1.52
2022-09-14T13:09:06.329Z,1.97
2022-09-14T13:11:41.037Z,1.40
2022-09-14T13:14:19.555Z,1.95
2022-09-14T13:16:50.182Z,1.83
2022-09-14T13:19:24.058Z,1.50
2022-09-14T13:21:53.852Z,1.58
2022-09-14T13:24:24.342Z,1.63
2022-09-14T13:26:52.195Z,1.45
2022-09-14T13:29:18.735Z,1.33
2022-09-14T13:31:45.835Z,0.90
2022-09-14T13:34:22.869Z,1.05
2022-09-14T13:36:50.059Z,1.23
2022-09-14T13:39:24.540Z,0.73
2022-09-14T13:41:52.183Z,0.87
2022-09-14T13:44:25.126Z,0.68
2022-09-14T13:46:52.268Z,0.70
2022-09-14T13:49:19.172Z,0.50
2022-09-14T13:51:45.842Z,0.40
2022-09-14T13:54:36.201Z,0.40
2022-09-14T13:57:13.377Z,0.75
2022-09-14T14:00:07.954Z,0.80
2022-09-14T14:02:36.771Z,0.80
2022-09-14T14:05:05.009Z,0.88
2022-09-14T14:07:36.294Z,0.70
2022-09-14T14:10:04.541Z,0.68
2022-09-14T14:12:39.617Z,0.88
2022-09-14T14:15:26.144Z,0.73
2022-09-14T14:17:54.139Z,1.00
2022-09-14T14:20:26.577Z,1.30
2022-09-14T14:23:10.523Z,0.88
2022-09-14T14:25:45.854Z,0.85
2022-09-14T14:28:28.537Z,1.42
2022-09-14T14:30:57.426Z,0.90
2022-09-14T14:33:25.079Z,1.25
2022-09-14T14:35:54.268Z,1.00
2022-09-14T14:38:23.260Z,0.90
2022-09-14T14:40:51.910Z,1.10
2022-09-14T14:43:21.717Z,1.27
2022-09-14T14:45:48.721Z,1.10
2022-09-14T14:48:15.444Z,0.98
2022-09-14T14:50:42.205Z,1.45
2022-09-14T14:53:09.053Z,0.90
2022-09-14T14:55:37.478Z,0.73
2022-09-14T14:58:07.111Z,1.23
2022-09-14T15:00:35.954Z,1.17
2022-09-14T15:03:02.934Z,1.40
2022-09-14T15:05:30.954Z,1.27
2022-09-14T15:07:57.957Z,0.95
2022-09-14T15:10:26.484Z,1.50
2022-09-14T15:12:53.061Z,0.90
2022-09-14T15:15:23.990Z,1.00
2022-09-14T15:17:52.272Z,1.02
2022-09-14T15:20:19.895Z,1.30
2022-09-14T15:22:47.668Z,0.93
2022-09-14T15:25:16.072Z,0.90
2022-09-14T15:27:43.117Z,0.90
2022-09-14T15:30:11.453Z,0.88
2022-09-14T15:32:38.850Z,1.08
2022-09-14T15:35:07.689Z,0.90
2022-09-14T15:37:34.399Z,0.98
2022-09-14T15:40:01.171Z,0.82
2022-09-14T15:42:28.052Z,0.95
2022-09-14T15:44:54.735Z,0.80
2022-09-14T15:47:21.659Z,0.90
2022-09-14T15:49:52.626Z,1.20
2022-09-14T15:52:19.554Z,0.77
2022-09-14T15:54:46.213Z,0.80
2022-09-14T15:57:13.493Z,0.80
2022-09-14T15:59:40.637Z,0.70
2022-09-14T16:02:07.783Z,0.90
2022-09-14T16:04:38.448Z,0.77
2022-09-14T16:07:09.593Z,0.70
2022-09-14T16:09:38.864Z,0.63
2022-09-14T16:12:06.792Z,0.57
2022-09-14T16:14:33.534Z,0.93
2022-09-14T16:17:01.549Z,1.02
2022-09-14T16:19:28.566Z,0.80
2022-09-14T16:21:55.466Z,0.50
2022-09-14T16:24:25.348Z,0.50
2022-09-14T16:26:52.594Z,1.25
2022-09-14T16:29:21.127Z,0.85
2022-09-14T16:31:48.732Z,0.80
2022-09-14T16:34:27.802Z,0.50
2022-09-14T16:37:13.519Z,0.95
2022-09-14T16:39:41.247Z,0.70
2022-09-14T16:42:07.893Z,0.90
2022-09-14T16:44:34.655Z,0.88
2022-09-14T16:47:01.373Z,1.20
2022-09-14T16:49:28.592Z,1.08
2022-09-14T16:51:56.231Z,1.10
2022-09-14T16:54:24.349Z,0.90
2022-09-14T16:56:51.535Z,0.95
2022-09-14T16:59:19.268Z,0.60
2022-09-14T17:01:53.427Z,1.20
2022-09-14T17:04:21.969Z,1.00
2022-09-14T17:06:50.341Z,1.05
2022-09-14T17:09:23.161Z,1.52
2022-09-14T17:11:50.143Z,1.20
2022-09-14T17:14:20.210Z,1.27
2022-09-14T17:16:47.619Z,1.00
2022-09-14T17:19:14.741Z,1.13
2022-09-14T17:21:43.383Z,1.65
2022-09-14T17:24:11.085Z,1.58
2022-09-14T17:26:38.186Z,1.48
2022-09-14T17:29:06.116Z,1.52
2022-09-14T17:31:36.056Z,1.52
2022-09-14T17:34:04.927Z,1.30
2022-09-14T17:36:32.087Z,1.77
2022-09-14T17:39:09.157Z,1.42
2022-09-14T17:41:38.888Z,1.40
2022-09-14T17:44:06.853Z,1.60
2022-09-14T17:46:34.117Z,1.83
2022-09-14T17:49:03.519Z,1.60
2022-09-14T17:51:31.161Z,1.88
2022-09-14T17:53:58.729Z,2.00
2022-09-14T17:56:26.871Z,1.48
2022-09-14T17:59:10.094Z,1.70
2022-09-14T18:01:36.705Z,1.63
2022-09-14T18:04:06.681Z,1.40
2022-09-14T18:06:36.816Z,1.90
2022-09-14T18:09:06.570Z,2.15
2022-09-14T18:11:33.411Z,1.95
2022-09-14T18:14:00.126Z,2.38
2022-09-14T18:16:27.560Z,1.95
2022-09-14T18:18:54.693Z,2.40
2022-09-14T18:21:21.251Z,2.15
2022-09-14T18:23:51.709Z,2.33
2022-09-14T18:26:19.094Z,2.17
2022-09-14T18:28:46.313Z,2.45
2022-09-14T18:31:16.069Z,2.65
2022-09-14T18:33:48.137Z,2.50
2022-09-14T18:36:15.198Z,2.80
2022-09-14T18:38:42.653Z,2.80
2022-09-14T18:41:11.302Z,2.47
2022-09-14T18:43:41.855Z,2.40
2022-09-14T18:46:08.864Z,3.05
2022-09-14T18:48:35.485Z,2.40
2022-09-14T18:51:04.479Z,2.58
2022-09-14T18:53:31.933Z,2.50
2022-09-14T18:56:07.401Z,3.03
2022-09-14T19:01:05.478Z,2.40
2022-09-14T19:03:32.808Z,2.35
2022-09-14T19:06:05.579Z,3.22
2022-09-14T19:08:32.100Z,2.70
2022-09-14T19:11:04.734Z,2.88
2022-09-14T19:13:31.318Z,2.50
2022-09-14T19:15:57.885Z,2.90
2022-09-14T19:18:24.475Z,3.00
2022-09-14T19:21:06.011Z,2.08
2022-09-14T19:23:33.623Z,2.53
2022-09-14T19:26:12.526Z,2.67
2022-09-14T19:28:39.275Z,2.88
2022-09-14T19:31:17.917Z,3.00
2022-09-14T19:33:45.884Z,2.53
2022-09-14T19:36:17.274Z,2.80
2022-09-14T19:38:43.880Z,2.75
2022-09-14T19:41:10.586Z,2.85
2022-09-14T19:43:37.160Z,2.70
2022-09-14T19:46:04.481Z,3.05
2022-09-14T19:48:31.951Z,2.53
2022-09-14T19:51:03.831Z,2.58
2022-09-14T19:53:32.323Z,3.20
2022-09-14T19:55:59.089Z,3.03
2022-09-14T19:58:26.245Z,2.75
2022-09-14T20:00:54.493Z,2.95
2022-09-14T20:03:21.177Z,2.95
2022-09-14T20:05:47.759Z,2.95
2022-09-14T20:08:14.402Z,3.50
2022-09-14T20:10:41.076Z,3.08
2022-09-14T20:13:07.629Z,3.20
2022-09-14T20:15:34.219Z,2.80
2022-09-14T20:18:01.020Z,2.80
2022-09-14T20:20:27.616Z,3.10
2022-09-14T20:22:54.221Z,3.20
2022-09-14T20:25:20.904Z,3.85
2022-09-14T20:27:47.925Z,3.55
2022-09-14T20:30:14.534Z,4.18
2022-09-14T20:32:41.833Z,3.40
2022-09-14T20:35:09.603Z,4.32
2022-09-14T20:37:36.139Z,3.90
2022-09-14T20:40:02.954Z,3.63
2022-09-14T20:42:29.564Z,3.95
2022-09-14T20:44:56.127Z,4.05
2022-09-14T20:47:23.474Z,4.07
2022-09-14T20:49:50.127Z,3.30
2022-09-14T20:52:16.830Z,4.35
2022-09-14T20:54:43.354Z,3.35
2022-09-14T20:57:09.931Z,4.22
2022-09-14T20:59:36.447Z,3.58
2022-09-14T21:02:05.545Z,2.80
2022-09-14T21:04:34.056Z,3.15
2022-09-14T21:07:00.659Z,2.78
2022-09-14T21:09:27.230Z,3.38
2022-09-14T21:11:54.315Z,3.75
2022-09-14T21:14:21.704Z,3.70
2022-09-14T21:16:51.757Z,3.72
2022-09-14T21:19:19.351Z,3.85
2022-09-14T21:21:47.262Z,4.47
2022-09-14T21:24:15.351Z,3.92
2022-09-14T21:26:43.365Z,3.83
2022-09-14T21:29:20.707Z,3.60
2022-09-14T21:31:48.598Z,3.88
2022-09-14T21:34:15.721Z,4.10
2022-09-14T21:36:44.819Z,3.65
2022-09-14T21:39:14.902Z,4.45
2022-09-14T21:41:42.765Z,4.40
2022-09-14T21:44:09.375Z,4.05
2022-09-14T21:46:36.618Z,4.70
2022-09-14T21:49:03.480Z,4.55
2022-09-14T21:51:32.930Z,4.65
2022-09-14T21:54:01.920Z,4.82
2022-09-14T21:56:31.765Z,4.40
2022-09-14T21:59:00.734Z,4.50
2022-09-14T22:01:28.481Z,4.60
2022-09-14T22:03:56.128Z,4.57
2022-09-14T22:06:25.293Z,4.82
2022-09-14T22:08:52.359Z,4.53
2022-09-14T22:11:23.169Z,4.63
2022-09-14T22:13:58.673Z,4.25
2022-09-14T22:16:27.039Z,5.00
2022-09-14T22:18:56.618Z,4.43
2022-09-14T22:21:25.026Z,4.55
2022-09-14T22:23:55.145Z,4.65
2022-09-14T22:26:23.188Z,4.55
2022-09-14T22:28:51.381Z,5.10
2022-09-14T22:31:20.466Z,4.80
2022-09-14T22:33:47.666Z,4.60
2022-09-14T22:36:17.671Z,4.65
2022-09-14T22:38:46.414Z,4.63
2022-09-14T22:41:17.566Z,4.40
2022-09-14T22:43:45.199Z,5.97
2022-09-14T22:46:12.868Z,5.68
2022-09-14T22:48:40.087Z,6.38
2022-09-14T22:51:08.533Z,6.30
2022-09-14T22:53:35.115Z,6.43
2022-09-14T22:56:26.987Z,6.13
2022-09-14T22:58:54.337Z,6.13
2022-09-14T23:01:24.738Z,5.28
2022-09-14T23:03:58.057Z,6.78
2022-09-14T23:06:40.066Z,6.22
2022-09-14T23:09:08.753Z,5.55
2022-09-14T23:11:35.343Z,6.80
2022-09-14T23:14:02.588Z,6.15
2022-09-14T23:16:30.521Z,6.07
2022-09-14T23:18:59.757Z,6.03
2022-09-14T23:21:27.573Z,5.60
2022-09-14T23:23:56.683Z,6.25
2022-09-14T23:26:23.701Z,5.53
2022-09-14T23:29:02.680Z,6.30
2022-09-14T23:31:30.445Z,6.13
2022-09-14T23:33:59.050Z,5.57
2022-09-14T23:36:26.468Z,6.30
2022-09-14T23:38:53.248Z,6.53
2022-09-14T23:41:21.536Z,6.63
2022-09-14T23:43:48.179Z,6.13
2022-09-14T23:46:15.622Z,7.05
2022-09-14T23:48:42.731Z,5.90
2022-09-14T23:51:10.293Z,6.88
2022-09-14T23:53:37.819Z,5.47
2022-09-14T23:56:05.164Z,6.00
2022-09-14T23:58:31.864Z,6.28
